CheckWX is a tool to help pilots better visualize weather data.  It is not intended as a substitute for an official pre-flight weather briefing.

07:13:49 UTC

KSUU TAF
Travis AFB Airport
Fairfield, California, USA
TAF KSUU 280300Z 2803/2909 23012G18KT 9999 SKC QNH2976INS TX37/2823Z TN15/2812Z

May-28@
03:00 UTC

May-28 @ 03:00 UTC

May-29@
09:00 UTC

May-29 @ 09:00 UTC

TAF KSUU 280300Z 2803/2909 23012G18KT 9999 SKC QNH2976INS TX37/2823Z TN15/2812Z
Wind
  • 230° at 12 KTS
  • {Gusting to 18 KTS
Cloud Levels
  • Clear skies